createdAt,value
2022-08-25T00:01:44.673Z,42.87
2022-08-25T00:04:15.316Z,43.49
2022-08-25T00:06:43.602Z,42.52
2022-08-25T00:09:13.448Z,43.56
2022-08-25T00:11:42.827Z,44.01
2022-08-25T00:14:14.242Z,44.91
2022-08-25T00:16:41.340Z,44.18
2022-08-25T00:19:12.874Z,44.53
2022-08-25T00:21:39.676Z,44.77
2022-08-25T00:24:06.846Z,44.21
2022-08-25T00:26:33.499Z,43.98
2022-08-25T00:29:01.745Z,44.09
2022-08-25T00:31:38.879Z,43.77
2022-08-25T00:34:13.100Z,44.16
2022-08-25T00:36:40.316Z,44.91
2022-08-25T00:39:10.121Z,45.09
2022-08-25T00:41:38.824Z,45.46
2022-08-25T00:44:08.524Z,45.73
2022-08-25T00:46:43.697Z,45.90
2022-08-25T00:49:25.338Z,44.61
2022-08-25T00:52:03.971Z,44.25
2022-08-25T00:54:37.641Z,45.02
2022-08-25T00:57:07.358Z,46.89
2022-08-25T00:59:35.003Z,45.96
2022-08-25T01:02:03.720Z,46.68
2022-08-25T01:04:30.704Z,46.61
2022-08-25T01:07:00.534Z,47.50
2022-08-25T01:09:31.424Z,46.64
2022-08-25T01:11:59.984Z,47.97
2022-08-25T01:14:30.153Z,47.95
2022-08-25T01:16:57.591Z,48.64
2022-08-25T01:19:26.920Z,48.28
2022-08-25T01:21:54.068Z,47.97
2022-08-25T01:24:30.957Z,49.49
2022-08-25T01:26:58.272Z,50.40
2022-08-25T01:29:25.651Z,50.63
2022-08-25T01:31:59.970Z,50.32
2022-08-25T01:34:30.140Z,50.37
2022-08-25T01:36:58.956Z,50.35
2022-08-25T01:39:28.935Z,51.35
2022-08-25T01:42:09.671Z,51.96
2022-08-25T01:44:40.040Z,52.57
2022-08-25T01:47:07.926Z,51.40
2022-08-25T01:49:34.766Z,52.47
2022-08-25T01:52:33.005Z,51.83
2022-08-25T01:54:59.642Z,54.40
2022-08-25T01:57:29.065Z,53.78
2022-08-25T01:59:55.710Z,53.92
2022-08-25T02:02:22.441Z,54.09
2022-08-25T02:04:49.091Z,54.13
2022-08-25T02:07:17.726Z,54.68
2022-08-25T02:09:44.389Z,52.88
2022-08-25T02:12:14.345Z,56.00
2022-08-25T02:14:41.068Z,56.17
2022-08-25T02:17:09.026Z,55.13
2022-08-25T02:19:35.787Z,54.61
2022-08-25T02:22:02.628Z,54.31
2022-08-25T02:24:29.322Z,53.75
2022-08-25T02:26:56.067Z,54.27
2022-08-25T02:29:22.794Z,54.11
2022-08-25T02:31:49.783Z,53.95
2022-08-25T02:34:16.538Z,54.74
2022-08-25T02:36:43.231Z,54.46
2022-08-25T02:39:10.995Z,54.56
2022-08-25T02:41:37.916Z,54.53
2022-08-25T02:44:05.619Z,55.15
2022-08-25T02:46:32.316Z,54.61
2022-08-25T02:48:59.510Z,55.39
2022-08-25T02:51:27.588Z,54.93
2022-08-25T02:53:54.229Z,54.34
2022-08-25T02:56:20.964Z,58.07
2022-08-25T02:58:47.796Z,58.29
2022-08-25T03:01:16.235Z,58.72
2022-08-25T03:03:46.057Z,59.62
2022-08-25T03:06:16.240Z,57.85
2022-08-25T03:08:43.661Z,58.06
2022-08-25T03:11:10.854Z,56.16
2022-08-25T03:13:38.139Z,57.36
2022-08-25T03:16:11.246Z,58.63
2022-08-25T03:18:41.012Z,58.92
2022-08-25T03:21:07.958Z,59.14
2022-08-25T03:23:34.973Z,59.41
2022-08-25T03:26:02.006Z,57.07
2022-08-25T03:28:30.062Z,58.43
2022-08-25T03:30:57.433Z,56.25
2022-08-25T03:33:24.049Z,58.06
2022-08-25T03:35:50.676Z,56.30
2022-08-25T03:38:17.292Z,55.78
2022-08-25T03:40:44.103Z,56.07
2022-08-25T03:43:10.759Z,54.79
2022-08-25T03:45:45.033Z,55.25
2022-08-25T03:48:12.414Z,56.10
2022-08-25T03:50:51.535Z,57.44
2022-08-25T03:53:21.992Z,58.86
2022-08-25T03:55:48.660Z,58.28
2022-08-25T03:58:15.701Z,56.86
2022-08-25T04:00:42.447Z,55.37
2022-08-25T04:03:09.418Z,56.77
2022-08-25T04:05:36.098Z,57.10
2022-08-25T04:08:03.371Z,55.58
2022-08-25T04:10:30.962Z,54.91
2022-08-25T04:12:58.251Z,54.49
2022-08-25T04:15:24.923Z,54.80
2022-08-25T04:17:55.695Z,55.44
2022-08-25T04:20:22.361Z,55.01
2022-08-25T04:22:49.194Z,55.43
2022-08-25T04:25:15.845Z,56.89
2022-08-25T04:27:42.479Z,56.22
2022-08-25T04:30:09.836Z,55.52
2022-08-25T04:32:40.184Z,58.90
2022-08-25T04:35:07.358Z,59.42
2022-08-25T04:37:34.525Z,60.44
2022-08-25T04:40:01.867Z,59.50
2022-08-25T04:42:28.556Z,60.41
2022-08-25T04:44:55.212Z,58.49
2022-08-25T04:47:22.523Z,60.01
2022-08-25T04:49:49.399Z,61.12
2022-08-25T04:52:16.222Z,60.87
2022-08-25T04:54:43.577Z,60.40
2022-08-25T04:57:10.647Z,59.10
2022-08-25T04:59:37.349Z,58.83
2022-08-25T05:02:05.455Z,58.45
2022-08-25T05:04:35.211Z,59.70
2022-08-25T05:07:03.075Z,61.50
2022-08-25T05:09:32.436Z,61.93
2022-08-25T05:12:01.250Z,60.63
2022-08-25T05:14:28.880Z,60.54
2022-08-25T05:16:56.139Z,62.06
2022-08-25T05:19:23.107Z,60.99
2022-08-25T05:21:49.832Z,60.51
2022-08-25T05:24:16.511Z,59.08
2022-08-25T05:26:45.096Z,59.24
2022-08-25T05:29:11.790Z,57.66
2022-08-25T05:31:43.133Z,57.34
2022-08-25T05:34:10.725Z,57.35
2022-08-25T05:36:37.711Z,57.50
2022-08-25T05:39:04.705Z,60.01
2022-08-25T05:41:31.585Z,61.08
2022-08-25T05:43:58.449Z,60.47
2022-08-25T05:46:27.711Z,58.02
2022-08-25T05:48:58.325Z,57.30
2022-08-25T05:51:24.941Z,56.37
2022-08-25T05:53:51.626Z,58.29
2022-08-25T05:56:19.589Z,58.86
2022-08-25T05:58:46.753Z,58.43
2022-08-25T06:01:26.689Z,57.25
2022-08-25T06:03:53.607Z,56.30
2022-08-25T06:06:22.713Z,55.13
2022-08-25T06:08:49.446Z,55.15
2022-08-25T06:11:16.160Z,55.40
2022-08-25T06:13:43.648Z,55.75
2022-08-25T06:16:10.386Z,54.85
2022-08-25T06:18:37.138Z,54.70
2022-08-25T06:21:14.688Z,54.99
2022-08-25T06:23:41.614Z,55.27
2022-08-25T06:26:18.141Z,54.67
2022-08-25T06:28:47.459Z,55.02
2022-08-25T06:31:14.905Z,54.57
2022-08-25T06:33:41.623Z,54.23
2022-08-25T06:36:08.442Z,54.43
2022-08-25T06:38:35.440Z,55.15
2022-08-25T06:41:06.591Z,54.37
2022-08-25T06:43:34.786Z,54.12
2022-08-25T06:46:16.623Z,54.29
2022-08-25T06:48:43.943Z,53.69
2022-08-25T06:51:14.375Z,52.98
2022-08-25T06:53:42.402Z,52.41
2022-08-25T06:56:09.669Z,51.86
2022-08-25T06:58:37.571Z,51.79
2022-08-25T07:01:12.347Z,51.89
2022-08-25T07:03:43.212Z,51.11
2022-08-25T07:06:10.359Z,47.93
2022-08-25T07:08:37.020Z,45.60
2022-08-25T07:11:07.880Z,42.68
2022-08-25T07:13:44.427Z,41.04
2022-08-25T07:16:11.446Z,38.18
2022-08-25T07:18:39.013Z,37.06
2022-08-25T07:21:05.967Z,35.42
2022-08-25T07:23:36.562Z,34.96
2022-08-25T07:26:36.282Z,34.78
2022-08-25T07:29:12.720Z,35.25
2022-08-25T07:31:40.224Z,36.13
2022-08-25T07:34:07.944Z,36.86
2022-08-25T07:36:36.029Z,37.39
2022-08-25T07:39:04.121Z,38.67
2022-08-25T07:41:31.199Z,37.36
2022-08-25T07:43:59.791Z,35.62
2022-08-25T07:46:26.756Z,35.08
2022-08-25T07:48:53.606Z,36.46
2022-08-25T07:51:20.338Z,37.55
2022-08-25T07:53:47.020Z,36.47
2022-08-25T07:56:16.285Z,35.24
2022-08-25T07:58:43.605Z,35.36
2022-08-25T08:01:17.160Z,35.28
2022-08-25T08:03:50.815Z,36.57
2022-08-25T08:06:21.790Z,35.77
2022-08-25T08:08:50.635Z,35.70
2022-08-25T08:11:23.936Z,35.74
2022-08-25T08:13:50.917Z,35.05
2022-08-25T08:16:19.920Z,34.60
2022-08-25T08:18:47.671Z,35.29
2022-08-25T08:21:19.191Z,34.99
2022-08-25T08:23:47.268Z,36.12
2022-08-25T08:26:14.342Z,36.06
2022-08-25T08:28:41.076Z,36.39
2022-08-25T08:31:10.498Z,34.39
2022-08-25T08:33:40.882Z,37.60
2022-08-25T08:36:10.944Z,36.71
2022-08-25T08:38:40.513Z,35.89
2022-08-25T08:41:25.442Z,35.42
2022-08-25T08:44:07.852Z,35.01
2022-08-25T08:46:50.627Z,34.04
2022-08-25T08:49:29.467Z,34.98
2022-08-25T08:52:02.759Z,33.62
2022-08-25T08:54:36.276Z,34.18
2022-08-25T08:57:13.979Z,34.32
2022-08-25T08:59:55.172Z,34.31
2022-08-25T09:02:56.248Z,34.37
2022-08-25T09:05:29.454Z,34.72
2022-08-25T09:08:10.569Z,35.54
2022-08-25T09:11:05.374Z,36.76
2022-08-25T09:13:55.296Z,36.77
2022-08-25T09:16:41.962Z,36.29
2022-08-25T09:19:37.396Z,36.66
2022-08-25T09:22:35.724Z,37.78
2022-08-25T09:25:48.790Z,36.71
2022-08-25T09:28:40.709Z,37.90
2022-08-25T09:31:29.573Z,39.81
2022-08-25T09:34:00.336Z,39.65
2022-08-25T09:36:27.496Z,40.87
2022-08-25T09:38:54.396Z,40.05
2022-08-25T09:41:46.671Z,40.66
2022-08-25T09:44:26.610Z,41.13
2022-08-25T09:47:15.203Z,41.04
2022-08-25T09:49:43.800Z,41.78
2022-08-25T09:52:30.068Z,41.84
2022-08-25T09:55:13.126Z,41.24
2022-08-25T09:57:42.935Z,42.42
2022-08-25T10:00:27.075Z,42.25
2022-08-25T10:03:14.185Z,44.78
2022-08-25T10:05:57.321Z,41.71
2022-08-25T10:08:32.665Z,42.19
2022-08-25T10:11:03.688Z,43.03
2022-08-25T10:13:42.179Z,42.31
2022-08-25T10:16:19.979Z,42.34
2022-08-25T10:19:06.010Z,41.61
2022-08-25T10:21:34.175Z,42.52
2022-08-25T10:24:02.317Z,42.59
2022-08-25T10:27:01.436Z,42.46
2022-08-25T10:30:12.964Z,43.51
2022-08-25T10:32:45.555Z,42.68
2022-08-25T10:35:18.209Z,42.41
2022-08-25T10:38:06.513Z,42.35
2022-08-25T10:40:33.434Z,41.64
2022-08-25T10:43:19.255Z,40.50
2022-08-25T10:46:04.947Z,40.59
2022-08-25T10:48:44.730Z,41.24
2022-08-25T10:51:35.826Z,40.07
2022-08-25T10:54:25.831Z,39.92
2022-08-25T10:57:13.603Z,39.30
2022-08-25T10:59:45.839Z,39.43
2022-08-25T11:02:16.346Z,39.56
2022-08-25T11:05:03.496Z,39.54
2022-08-25T11:07:54.609Z,38.20
2022-08-25T11:10:33.230Z,39.54
2022-08-25T11:13:07.702Z,39.34
2022-08-25T11:16:13.684Z,37.71
2022-08-25T11:19:22.092Z,37.07
2022-08-25T11:22:13.050Z,37.77
2022-08-25T11:24:56.816Z,36.78
2022-08-25T11:27:37.011Z,36.94
2022-08-25T11:30:12.202Z,37.06
2022-08-25T11:32:43.799Z,37.32
2022-08-25T11:35:14.518Z,37.49
2022-08-25T11:38:14.336Z,37.43
2022-08-25T11:41:29.060Z,36.57
2022-08-25T11:44:27.728Z,36.96
2022-08-25T11:47:00.691Z,35.76
2022-08-25T11:49:51.699Z,34.90
2022-08-25T11:52:34.766Z,36.13
2022-08-25T11:55:27.886Z,36.08
2022-08-25T11:58:33.602Z,35.12
2022-08-25T12:01:04.303Z,34.53
2022-08-25T12:03:36.971Z,33.44
2022-08-25T12:06:28.096Z,34.98
2022-08-25T12:09:00.499Z,35.37
2022-08-25T12:11:39.362Z,34.54
2022-08-25T12:14:28.590Z,34.77
2022-08-25T12:16:55.500Z,35.10
2022-08-25T12:19:25.142Z,34.65
2022-08-25T12:21:57.825Z,34.18
2022-08-25T12:24:47.585Z,35.07
2022-08-25T12:27:46.234Z,35.48
2022-08-25T12:30:21.096Z,34.90
2022-08-25T12:32:50.967Z,34.79
2022-08-25T12:35:23.668Z,35.27
2022-08-25T12:38:01.868Z,35.58
2022-08-25T12:40:52.979Z,35.13
2022-08-25T12:43:19.674Z,34.80
2022-08-25T12:45:53.121Z,34.61
2022-08-25T12:48:29.096Z,35.10
2022-08-25T12:51:15.006Z,34.97
2022-08-25T12:53:45.210Z,34.23
2022-08-25T12:56:26.534Z,34.11
2022-08-25T12:59:01.449Z,35.64
2022-08-25T13:01:42.315Z,33.67
2022-08-25T13:04:27.524Z,33.93
2022-08-25T13:07:41.513Z,34.13
2022-08-25T13:10:29.701Z,34.04
2022-08-25T13:13:17.747Z,33.46
2022-08-25T13:15:48.692Z,34.42
2022-08-25T13:18:34.022Z,34.83
2022-08-25T13:21:23.109Z,34.16
2022-08-25T13:23:53.848Z,34.77
2022-08-25T13:26:27.780Z,34.59
2022-08-25T13:29:12.982Z,35.69
2022-08-25T13:32:00.938Z,35.40
2022-08-25T13:34:42.874Z,34.25
2022-08-25T13:37:23.002Z,33.13
2022-08-25T13:39:58.676Z,34.78
2022-08-25T13:42:28.886Z,34.46
2022-08-25T13:44:56.237Z,33.97
2022-08-25T13:47:45.091Z,33.97
2022-08-25T13:50:31.283Z,35.70
2022-08-25T13:53:23.254Z,35.32
2022-08-25T13:56:00.980Z,33.01
2022-08-25T13:58:39.201Z,33.35
2022-08-25T14:01:31.447Z,33.85
2022-08-25T14:04:25.362Z,34.04
2022-08-25T14:07:19.280Z,35.23
2022-08-25T14:09:57.506Z,35.74
2022-08-25T14:12:33.275Z,35.84
2022-08-25T14:15:32.173Z,36.03
2022-08-25T14:18:09.774Z,35.26
2022-08-25T14:20:47.803Z,35.59
2022-08-25T14:23:19.411Z,35.26
2022-08-25T14:25:48.684Z,34.29
2022-08-25T14:28:20.802Z,34.64
2022-08-25T14:30:51.947Z,32.09
2022-08-25T14:33:26.596Z,32.80
2022-08-25T14:35:58.429Z,33.34
2022-08-25T14:38:25.677Z,32.19
2022-08-25T14:40:53.168Z,31.99
2022-08-25T14:43:24.041Z,32.41
2022-08-25T14:46:02.553Z,31.80
2022-08-25T14:48:40.506Z,32.52
2022-08-25T14:51:14.076Z,31.79
2022-08-25T14:53:42.735Z,33.01
2022-08-25T14:56:10.411Z,31.42
2022-08-25T14:58:48.356Z,32.25
2022-08-25T15:01:28.459Z,31.50
2022-08-25T15:04:02.288Z,32.37
2022-08-25T15:06:29.948Z,31.76
2022-08-25T15:08:56.833Z,31.50
2022-08-25T15:11:24.322Z,31.62
2022-08-25T15:13:53.124Z,31.08
2022-08-25T15:16:48.083Z,31.63
2022-08-25T15:19:18.828Z,31.93
2022-08-25T15:21:47.947Z,31.08
2022-08-25T15:24:17.339Z,30.23
2022-08-25T15:29:22.764Z,30.83
2022-08-25T15:31:50.653Z,30.29
2022-08-25T15:34:17.360Z,30.49
2022-08-25T15:36:45.630Z,30.96
2022-08-25T15:39:12.285Z,31.02
2022-08-25T15:41:40.133Z,30.66
2022-08-25T15:44:09.654Z,31.56
2022-08-25T15:46:38.502Z,30.99
2022-08-25T15:49:07.868Z,30.80
2022-08-25T15:51:35.049Z,30.66
2022-08-25T15:54:01.714Z,29.98
2022-08-25T15:56:28.438Z,29.56
2022-08-25T15:58:55.399Z,29.81
2022-08-25T16:01:25.188Z,30.21
2022-08-25T16:03:52.503Z,29.30
2022-08-25T16:06:19.426Z,29.53
2022-08-25T16:08:46.445Z,29.59
2022-08-25T16:11:20.323Z,29.69
2022-08-25T16:13:49.423Z,29.38
2022-08-25T16:16:18.569Z,28.97
2022-08-25T16:18:46.108Z,28.90
2022-08-25T16:21:17.546Z,29.25
2022-08-25T16:23:44.224Z,29.03
2022-08-25T16:26:13.034Z,28.27
2022-08-25T16:28:43.741Z,28.03
2022-08-25T16:31:13.031Z,29.18
2022-08-25T16:36:13.219Z,30.62
2022-08-25T16:38:41.823Z,30.65
2022-08-25T16:41:22.254Z,30.48
2022-08-25T16:43:49.584Z,29.44
2022-08-25T16:46:19.583Z,29.35
2022-08-25T16:48:47.229Z,29.72
2022-08-25T16:51:22.461Z,29.34
2022-08-25T16:53:52.198Z,29.70
2022-08-25T16:56:18.829Z,30.40
2022-08-25T16:58:45.803Z,29.98
2022-08-25T17:01:12.856Z,29.74
2022-08-25T17:03:43.883Z,29.69
2022-08-25T17:06:11.219Z,29.05
2022-08-25T17:08:37.911Z,30.14
2022-08-25T17:11:07.708Z,30.28
2022-08-25T17:13:35.313Z,30.41
2022-08-25T17:16:03.162Z,31.17
2022-08-25T17:18:30.445Z,31.00
2022-08-25T17:21:04.301Z,31.42
2022-08-25T17:23:33.506Z,30.48
2022-08-25T17:26:02.177Z,30.73
2022-08-25T17:28:29.562Z,30.64
2022-08-25T17:30:56.482Z,30.52
2022-08-25T17:33:24.137Z,31.30
2022-08-25T17:35:53.563Z,30.49
2022-08-25T17:38:23.987Z,30.83
2022-08-25T17:40:52.884Z,30.46
2022-08-25T17:43:23.821Z,30.73
2022-08-25T17:45:52.159Z,31.94
2022-08-25T17:48:19.887Z,32.12
2022-08-25T17:50:46.865Z,31.79
2022-08-25T17:53:14.336Z,32.25
2022-08-25T17:55:47.640Z,31.72
2022-08-25T17:58:16.851Z,33.32
2022-08-25T18:00:44.247Z,34.61
2022-08-25T18:03:11.207Z,33.65
2022-08-25T18:05:38.707Z,32.43
2022-08-25T18:08:10.683Z,34.76
2022-08-25T18:10:38.388Z,34.69
2022-08-25T18:13:05.092Z,35.65
2022-08-25T18:15:32.464Z,36.31
2022-08-25T18:17:59.619Z,37.47
2022-08-25T18:20:30.841Z,37.02
2022-08-25T18:22:57.706Z,36.45
2022-08-25T18:25:26.760Z,37.54
2022-08-25T18:27:55.222Z,35.75
2022-08-25T18:30:22.548Z,35.97
2022-08-25T18:32:53.007Z,36.79
2022-08-25T18:35:21.723Z,36.43
2022-08-25T18:37:50.900Z,36.22
2022-08-25T18:40:17.793Z,36.20
2022-08-25T18:42:44.705Z,36.57
2022-08-25T18:45:12.485Z,38.17
2022-08-25T18:47:39.350Z,37.50
2022-08-25T18:50:06.736Z,40.04
2022-08-25T18:52:34.731Z,39.69
2022-08-25T18:55:01.670Z,38.39
2022-08-25T18:57:28.852Z,39.43
2022-08-25T18:59:55.627Z,40.43
2022-08-25T19:02:22.488Z,39.89
2022-08-25T19:04:49.993Z,40.92
2022-08-25T19:07:16.830Z,41.86
2022-08-25T19:09:43.614Z,41.00
2022-08-25T19:12:11.637Z,41.23
2022-08-25T19:14:49.171Z,40.16
2022-08-25T19:17:15.809Z,40.39
2022-08-25T19:19:42.579Z,40.42
2022-08-25T19:22:38.023Z,40.06
2022-08-25T19:24:57.751Z,39.75
2022-08-25T19:27:25.403Z,39.89
2022-08-25T19:29:52.896Z,40.11
2022-08-25T19:32:20.152Z,40.23
2022-08-25T19:34:51.312Z,39.92
2022-08-25T19:37:18.672Z,40.51
2022-08-25T19:39:52.904Z,40.75
2022-08-25T19:42:37.816Z,41.30
2022-08-25T19:45:11.370Z,41.17
2022-08-25T19:47:38.864Z,41.56
2022-08-25T19:50:07.639Z,41.27
2022-08-25T19:52:34.505Z,41.92
2022-08-25T19:55:01.124Z,42.61
2022-08-25T19:57:42.185Z,42.15
2022-08-25T20:00:17.753Z,42.37
2022-08-25T20:02:44.982Z,42.73
2022-08-25T20:05:12.923Z,42.47
2022-08-25T20:07:39.958Z,42.23
2022-08-25T20:10:14.137Z,41.98
2022-08-25T20:12:42.560Z,41.80
2022-08-25T20:15:11.526Z,41.31
2022-08-25T20:17:38.306Z,40.87
2022-08-25T20:20:11.517Z,40.16
2022-08-25T20:22:38.676Z,40.48
2022-08-25T20:25:13.089Z,39.56
2022-08-25T20:27:50.432Z,38.62
2022-08-25T20:30:24.631Z,38.13
2022-08-25T20:32:53.342Z,38.51
2022-08-25T20:35:21.521Z,39.50
2022-08-25T20:37:55.385Z,39.12
2022-08-25T20:40:25.765Z,39.63
2022-08-25T20:42:54.428Z,40.24
2022-08-25T20:45:22.746Z,40.42
2022-08-25T20:47:51.624Z,40.48
2022-08-25T20:50:19.410Z,41.37
2022-08-25T20:52:46.058Z,41.36
2022-08-25T20:55:15.187Z,42.68
2022-08-25T20:57:45.598Z,42.35
2022-08-25T21:00:13.210Z,42.84
2022-08-25T21:02:40.093Z,42.45
2022-08-25T21:05:07.901Z,43.75
2022-08-25T21:07:36.060Z,44.41
2022-08-25T21:10:06.549Z,42.33
2022-08-25T21:12:38.139Z,42.71
2022-08-25T21:15:05.281Z,42.43
2022-08-25T21:17:33.799Z,43.03
2022-08-25T21:20:00.478Z,43.74
2022-08-25T21:22:27.760Z,43.72
2022-08-25T21:24:55.117Z,43.16
2022-08-25T21:27:24.020Z,43.30
2022-08-25T21:29:54.899Z,43.24
2022-08-25T21:32:23.251Z,41.65
2022-08-25T21:34:54.620Z,42.23
2022-08-25T21:37:21.387Z,41.60
2022-08-25T21:39:48.673Z,42.91
2022-08-25T21:42:15.355Z,42.71
2022-08-25T21:44:42.008Z,41.26
2022-08-25T21:47:09.230Z,43.82
2022-08-25T21:49:37.617Z,43.64
2022-08-25T21:52:05.357Z,44.54
2022-08-25T21:54:32.559Z,44.69
2022-08-25T21:57:02.096Z,44.75
2022-08-25T21:59:35.276Z,45.01
2022-08-25T22:02:05.661Z,45.81
2022-08-25T22:04:33.832Z,45.75
2022-08-25T22:07:01.238Z,44.62
2022-08-25T22:09:29.519Z,43.83
2022-08-25T22:11:59.248Z,43.45
2022-08-25T22:14:27.502Z,44.21
2022-08-25T22:16:55.680Z,44.33
2022-08-25T22:19:23.716Z,44.52
2022-08-25T22:21:52.976Z,44.34
2022-08-25T22:24:22.966Z,43.84
2022-08-25T22:26:55.560Z,44.45
2022-08-25T22:29:25.441Z,44.17
2022-08-25T22:32:00.007Z,44.06
2022-08-25T22:34:32.949Z,43.84
2022-08-25T22:37:04.843Z,43.75
2022-08-25T22:39:34.314Z,44.13
2022-08-25T22:42:02.371Z,44.08
2022-08-25T22:44:29.038Z,43.67
2022-08-25T22:46:55.681Z,44.21
2022-08-25T22:49:22.888Z,43.48
2022-08-25T22:51:49.511Z,43.95
2022-08-25T22:54:16.138Z,43.32
2022-08-25T22:56:43.417Z,43.94
2022-08-25T22:59:13.469Z,44.55
2022-08-25T23:01:42.642Z,44.30
2022-08-25T23:04:10.755Z,42.67
2022-08-25T23:06:38.214Z,42.25
2022-08-25T23:09:07.466Z,42.50
2022-08-25T23:11:34.855Z,43.17
2022-08-25T23:14:01.698Z,44.80
2022-08-25T23:16:28.788Z,44.76
2022-08-25T23:18:55.500Z,44.74
2022-08-25T23:21:24.262Z,43.89
2022-08-25T23:23:52.024Z,44.14
2022-08-25T23:26:19.320Z,43.17
2022-08-25T23:28:50.723Z,42.82
2022-08-25T23:31:17.780Z,41.83
2022-08-25T23:33:45.235Z,41.88
2022-08-25T23:36:14.873Z,42.81
2022-08-25T23:38:44.631Z,41.73
2022-08-25T23:41:21.500Z,42.34
2022-08-25T23:43:50.595Z,42.34
2022-08-25T23:46:20.415Z,43.31
2022-08-25T23:48:48.474Z,44.11
2022-08-25T23:51:27.219Z,43.66
2022-08-25T23:53:54.769Z,43.80
2022-08-25T23:56:23.224Z,45.50
2022-08-25T23:58:51.299Z,47.51
